首页
METAR-TAF:

METAR-TAF

机场 :

特拉布宗, 土耳其

纬度: 41-00N, 经度: 039-43E, 海拔: 35米

当前天气观测

该预报发布于37分钟前的14:50 UTC
风速3节,风向东北,在东转东南之间变化
温度 11°C
湿度 71%
气压 1021 hPa
能见度10公里或以上
少量云层高于1500英尺
多云层高于3500英尺

METAR: LTCG 081450Z 05003KT 350V110 9999 FEW015 BKN035 11/06 Q1021 NOSIG RMK RWY29 VRB02KT

时间: 18:27 (15:27 UTC)

预报

该预报发布于4小时和47分钟前的10:40 UTC
预报有效从08日的 12点(UTC)到 09日的 12点(UTC)
风速2节,风向多变
能见度10公里或以上
散云层高于3500英尺
短暂存在
从 08日的 13点(UTC)到 08日的 17点(UTC)
风速12节,风向东转东北
散云层高于1200英尺
多云层高于2500英尺
几率 40%
从 08日的 17点(UTC)到 08日的 21点(UTC)
多云层高于1200英尺
多云层高于2500英尺

TAF: LTCG 081040Z 0812/0912 VRB02KT 9999 SCT035 TEMPO 0813/0817 07012KT SCT012 BKN025 PROB40 0817/0821 BKN012 BKN025

超过4000个机场的气象观测和天气预报(METAR&TAF报告)。

可查询的气象台以黄色和红色小点在地图上表示。

将鼠标移到小点上方,可查看气象台名称。

然后点击查看天气观测和预报。

如需切换地图:点击带黑十字的绿色按钮放大地图;点击带横线的绿色按钮缩小地图;或者点击绿色箭头查看邻近地区的地图。


METAR-TAF: